createdAt,value
2019-06-08T00:00:54.762Z,27.07
2019-06-08T00:03:30.280Z,27.52
2019-06-08T00:06:04.183Z,26.20
2019-06-08T00:08:37.929Z,25.48
2019-06-08T00:11:12.754Z,25.62
2019-06-08T00:13:46.707Z,24.45
2019-06-08T00:16:21.473Z,27.95
2019-06-08T00:18:55.245Z,25.30
2019-06-08T00:21:29.022Z,23.85
2019-06-08T00:24:03.203Z,27.15
2019-06-08T00:26:37.048Z,24.52
2019-06-08T00:29:10.808Z,24.87
2019-06-08T00:31:44.587Z,25.12
2019-06-08T00:34:18.526Z,25.27
2019-06-08T00:36:52.604Z,26.57
2019-06-08T00:39:26.329Z,27.62
2019-06-08T00:42:00.030Z,27.15
2019-06-08T00:44:33.742Z,25.37
2019-06-08T00:47:07.574Z,27.20
2019-06-08T00:49:41.291Z,27.82
2019-06-08T00:52:15.066Z,26.05
2019-06-08T00:54:48.910Z,29.18
2019-06-08T00:57:23.833Z,26.97
2019-06-08T00:59:59.634Z,26.82
2019-06-08T01:02:33.969Z,27.37
2019-06-08T01:05:07.760Z,30.20
2019-06-08T01:07:41.736Z,28.20
2019-06-08T01:10:15.669Z,23.87
2019-06-08T01:12:49.466Z,27.55
2019-06-08T01:15:29.307Z,24.92
2019-06-08T01:18:03.709Z,24.87
2019-06-08T01:20:34.131Z,27.67
2019-06-08T01:23:09.749Z,26.65
2019-06-08T01:25:44.763Z,25.90
2019-06-08T01:28:19.853Z,22.30
2019-06-08T01:30:53.770Z,26.57
2019-06-08T01:33:28.785Z,26.97
2019-06-08T01:36:02.656Z,27.25
2019-06-08T01:38:36.715Z,23.95
2019-06-08T01:41:12.286Z,27.62
2019-06-08T01:43:48.062Z,28.00
2019-06-08T01:46:21.940Z,25.00
2019-06-08T01:48:55.779Z,23.55
2019-06-08T01:51:30.574Z,23.73
2019-06-08T01:54:04.588Z,23.18
2019-06-08T01:56:38.755Z,24.27
2019-06-08T01:59:12.999Z,20.05
2019-06-08T02:01:46.770Z,19.87
2019-06-08T02:04:20.726Z,19.35
2019-06-08T02:06:54.480Z,19.73
2019-06-08T02:09:28.705Z,21.10
2019-06-08T02:12:02.782Z,19.48
2019-06-08T02:14:36.732Z,19.55
2019-06-08T02:17:10.582Z,18.48
2019-06-08T02:19:44.439Z,17.12
2019-06-08T02:22:18.352Z,18.82
2019-06-08T02:24:52.494Z,18.20
2019-06-08T02:27:27.245Z,19.20
2019-06-08T02:30:01.286Z,17.77
2019-06-08T02:32:36.826Z,19.67
2019-06-08T02:35:10.440Z,18.62
2019-06-08T02:37:44.419Z,16.73
2019-06-08T02:40:18.304Z,17.92
2019-06-08T02:42:52.387Z,21.05
2019-06-08T02:45:26.102Z,18.70
2019-06-08T02:47:59.888Z,19.07
2019-06-08T02:50:53.903Z,18.80
2019-06-08T02:53:29.628Z,17.95
2019-06-08T02:56:03.758Z,17.52
2019-06-08T02:58:39.102Z,20.57
2019-06-08T03:01:13.068Z,18.30
2019-06-08T03:03:46.848Z,20.00
2019-06-08T03:06:23.347Z,17.98
2019-06-08T03:08:57.549Z,22.40
2019-06-08T03:11:32.636Z,20.17
2019-06-08T03:14:08.318Z,20.08
2019-06-08T03:16:43.333Z,22.85
2019-06-08T03:19:22.200Z,21.35
2019-06-08T03:21:53.101Z,22.98
2019-06-08T03:24:27.117Z,22.77
2019-06-08T03:27:00.844Z,23.47
2019-06-08T03:29:35.533Z,23.32
2019-06-08T03:32:10.350Z,21.75
2019-06-08T03:34:54.640Z,22.20
2019-06-08T03:37:19.800Z,24.05
2019-06-08T03:39:53.621Z,23.55
2019-06-08T03:42:27.537Z,22.42
2019-06-08T03:45:01.197Z,23.55
2019-06-08T03:47:36.878Z,23.65
2019-06-08T03:50:10.512Z,21.27
2019-06-08T03:52:46.284Z,19.80
2019-06-08T03:55:20.526Z,21.85
2019-06-08T03:57:54.365Z,20.55
2019-06-08T04:00:28.411Z,22.27
2019-06-08T04:03:02.634Z,21.40
2019-06-08T04:05:40.770Z,21.52
2019-06-08T04:08:14.111Z,21.15
2019-06-08T04:10:47.980Z,20.92
2019-06-08T04:13:22.411Z,19.45
2019-06-08T04:15:57.735Z,20.70
2019-06-08T04:18:31.588Z,19.82
2019-06-08T04:21:05.360Z,21.75
2019-06-08T04:23:41.109Z,21.60
2019-06-08T04:26:15.767Z,18.98
2019-06-08T04:28:49.757Z,20.90
2019-06-08T04:31:23.624Z,18.80
2019-06-08T04:33:57.490Z,22.50
2019-06-08T04:36:31.444Z,18.98
2019-06-08T04:39:06.693Z,18.48
2019-06-08T04:41:41.127Z,20.00
2019-06-08T04:44:16.172Z,20.62
2019-06-08T04:46:50.088Z,19.82
2019-06-08T04:49:23.924Z,22.62
2019-06-08T04:51:57.580Z,18.25
2019-06-08T04:54:31.500Z,17.62
2019-06-08T04:57:05.261Z,19.25
2019-06-08T04:59:41.137Z,18.37
2019-06-08T05:02:14.432Z,18.45
2019-06-08T05:04:49.484Z,19.85
2019-06-08T05:07:23.537Z,19.48
2019-06-08T05:09:57.431Z,19.10
2019-06-08T05:12:31.676Z,19.55
2019-06-08T05:15:05.666Z,18.77
2019-06-08T05:17:41.047Z,20.23
2019-06-08T05:20:15.250Z,18.17
2019-06-08T05:22:49.797Z,17.73
2019-06-08T05:25:24.011Z,18.77
2019-06-08T05:27:57.884Z,16.57
2019-06-08T05:30:31.622Z,17.62
2019-06-08T05:33:05.585Z,17.87
2019-06-08T05:35:39.515Z,18.57
2019-06-08T05:38:13.332Z,17.70
2019-06-08T05:40:47.713Z,18.57
2019-06-08T05:43:22.122Z,16.50
2019-06-08T05:45:56.020Z,18.55
2019-06-08T05:48:30.062Z,16.37
2019-06-08T05:51:04.569Z,16.15
2019-06-08T05:53:39.595Z,16.07
2019-06-08T05:56:13.590Z,16.15
2019-06-08T05:58:48.127Z,15.63
2019-06-08T06:01:22.956Z,16.27
2019-06-08T06:03:56.919Z,15.80
2019-06-08T06:06:31.296Z,15.98
2019-06-08T06:09:07.050Z,14.73
2019-06-08T06:11:40.932Z,14.80
2019-06-08T06:14:14.758Z,15.13
2019-06-08T06:16:49.139Z,14.65
2019-06-08T06:19:23.166Z,13.58
2019-06-08T06:21:56.875Z,14.85
2019-06-08T06:24:30.838Z,13.30
2019-06-08T06:27:04.798Z,14.05
2019-06-08T06:29:38.458Z,14.30
2019-06-08T06:32:12.192Z,14.25
2019-06-08T06:34:46.046Z,15.08
2019-06-08T06:37:20.919Z,13.83
2019-06-08T06:39:54.675Z,13.72
2019-06-08T06:42:28.582Z,13.65
2019-06-08T06:45:02.781Z,13.28
2019-06-08T06:47:36.447Z,12.60
2019-06-08T06:50:12.164Z,12.53
2019-06-08T06:52:46.687Z,12.68
2019-06-08T06:55:20.760Z,12.75
2019-06-08T06:57:54.507Z,13.45
2019-06-08T07:00:34.614Z,12.43
2019-06-08T07:03:08.298Z,13.43
2019-06-08T07:05:42.242Z,12.28
2019-06-08T07:08:17.493Z,13.05
2019-06-08T07:10:51.350Z,13.08
2019-06-08T07:13:26.046Z,11.53
2019-06-08T07:16:16.912Z,12.20
2019-06-08T07:18:35.898Z,12.03
2019-06-08T07:21:09.773Z,11.73
2019-06-08T07:23:43.588Z,11.55
2019-06-08T07:26:17.435Z,12.05
2019-06-08T07:28:54.147Z,12.33
2019-06-08T07:31:28.162Z,14.40
2019-06-08T07:34:02.271Z,12.10
2019-06-08T07:36:36.159Z,11.97
2019-06-08T07:39:10.084Z,11.88
2019-06-08T07:41:43.990Z,12.53
2019-06-08T07:44:17.773Z,12.70
2019-06-08T07:46:51.614Z,11.55
2019-06-08T07:49:25.413Z,11.40
2019-06-08T07:52:09.713Z,11.75
2019-06-08T07:54:35.046Z,11.43
2019-06-08T07:57:10.270Z,11.48
2019-06-08T07:59:44.178Z,12.00
2019-06-08T08:02:18.149Z,13.83
2019-06-08T08:04:52.515Z,11.20
2019-06-08T08:07:26.588Z,13.13
2019-06-08T08:10:00.405Z,11.78
2019-06-08T08:12:34.203Z,11.57
2019-06-08T08:15:08.175Z,11.38
2019-06-08T08:17:41.902Z,10.05
2019-06-08T08:20:15.806Z,10.05
2019-06-08T08:22:54.415Z,11.53
2019-06-08T08:25:25.333Z,11.20
2019-06-08T08:28:00.910Z,9.30
2019-06-08T08:30:37.534Z,10.18
2019-06-08T08:33:10.932Z,11.03
2019-06-08T08:35:44.772Z,11.28
2019-06-08T08:38:18.709Z,10.38
2019-06-08T08:40:54.698Z,9.35
2019-06-08T08:43:28.570Z,10.50
2019-06-08T08:46:02.499Z,14.80
2019-06-08T08:48:37.698Z,12.73
2019-06-08T08:51:12.013Z,10.90
2019-06-08T08:53:48.201Z,14.18
2019-06-08T08:56:22.101Z,10.30
2019-06-08T08:58:59.158Z,10.48
2019-06-08T09:01:31.686Z,11.73
2019-06-08T09:04:08.555Z,13.68
2019-06-08T09:06:41.217Z,14.30
2019-06-08T09:09:18.352Z,11.30
2019-06-08T09:11:51.583Z,13.90
2019-06-08T09:14:28.068Z,11.48
2019-06-08T09:17:03.419Z,12.45
2019-06-08T09:19:40.365Z,13.65
2019-06-08T09:22:14.839Z,11.70
2019-06-08T09:24:48.897Z,14.13
2019-06-08T09:27:22.949Z,15.25
2019-06-08T09:29:59.684Z,13.30
2019-06-08T09:32:34.647Z,13.40
2019-06-08T09:35:09.373Z,15.85
2019-06-08T09:37:43.771Z,13.38
2019-06-08T09:40:19.854Z,15.95
2019-06-08T09:43:01.053Z,13.22
2019-06-08T09:45:30.468Z,15.00
2019-06-08T09:48:05.655Z,14.07
2019-06-08T09:50:40.059Z,15.95
2019-06-08T09:53:23.878Z,14.53
2019-06-08T09:55:49.668Z,14.47
2019-06-08T09:58:23.511Z,13.93
2019-06-08T10:01:01.046Z,18.42
2019-06-08T10:03:33.166Z,14.25
2019-06-08T10:06:11.540Z,14.47
2019-06-08T10:08:42.729Z,14.10
2019-06-08T10:11:16.761Z,14.75
2019-06-08T10:13:50.638Z,12.13
2019-06-08T10:16:24.825Z,12.98
2019-06-08T10:19:03.151Z,14.75
2019-06-08T10:21:34.515Z,19.57
2019-06-08T10:24:09.494Z,22.48
2019-06-08T10:26:43.883Z,23.05
2019-06-08T10:29:18.459Z,20.77
2019-06-08T10:31:53.047Z,21.73
2019-06-08T10:34:27.276Z,19.37
2019-06-08T10:37:08.314Z,20.25
2019-06-08T10:39:38.620Z,21.87
2019-06-08T10:42:13.094Z,21.87
2019-06-08T10:44:47.045Z,19.35
2019-06-08T10:47:21.148Z,20.30
2019-06-08T10:49:54.956Z,18.87
2019-06-08T10:52:28.668Z,20.72
2019-06-08T10:55:04.665Z,19.77
2019-06-08T10:57:38.831Z,18.00
2019-06-08T11:00:22.618Z,21.25
2019-06-08T11:02:49.939Z,20.23
2019-06-08T11:05:23.946Z,18.65
2019-06-08T11:07:59.339Z,20.17
2019-06-08T11:10:33.473Z,19.80
2019-06-08T11:13:13.314Z,19.17
2019-06-08T11:15:43.170Z,25.27
2019-06-08T11:18:18.613Z,20.95
2019-06-08T11:20:52.629Z,21.00
2019-06-08T11:23:28.620Z,18.95
2019-06-08T11:26:04.633Z,17.87
2019-06-08T11:28:38.330Z,19.85
2019-06-08T11:31:16.111Z,19.40
2019-06-08T11:33:51.386Z,17.15
2019-06-08T11:36:28.189Z,17.95
2019-06-08T11:39:02.917Z,18.57
2019-06-08T11:41:37.943Z,17.10
2019-06-08T11:44:14.918Z,18.90
2019-06-08T11:46:49.873Z,20.92
2019-06-08T11:49:27.729Z,19.82
2019-06-08T11:52:00.716Z,18.15
2019-06-08T11:54:40.022Z,17.37
2019-06-08T11:57:12.792Z,16.52
2019-06-08T11:59:48.464Z,16.23
2019-06-08T12:02:22.900Z,20.15
2019-06-08T12:04:57.256Z,17.42
2019-06-08T12:07:32.336Z,16.15
2019-06-08T12:10:09.664Z,15.98
2019-06-08T12:12:43.148Z,16.35
2019-06-08T12:15:18.149Z,16.87
2019-06-08T12:17:53.056Z,16.17
2019-06-08T12:20:28.007Z,16.73
2019-06-08T12:23:01.960Z,17.90
2019-06-08T12:25:37.755Z,19.92
2019-06-08T12:28:12.586Z,17.40
2019-06-08T12:30:47.918Z,16.25
2019-06-08T12:33:22.969Z,17.65
2019-06-08T12:35:57.895Z,17.07
2019-06-08T12:38:34.635Z,16.55
2019-06-08T12:41:09.629Z,16.00
2019-06-08T12:43:43.497Z,14.35
2019-06-08T12:46:19.820Z,14.70
2019-06-08T12:48:53.150Z,14.03
2019-06-08T12:51:28.085Z,12.82
2019-06-08T12:54:02.311Z,13.83
2019-06-08T12:56:37.785Z,12.53
2019-06-08T12:59:15.283Z,14.35
2019-06-08T13:01:48.423Z,12.98
2019-06-08T13:04:23.803Z,11.53
2019-06-08T13:06:58.460Z,10.35
2019-06-08T13:09:32.797Z,9.50
2019-06-08T13:12:07.931Z,9.55
2019-06-08T13:14:41.891Z,10.10
2019-06-08T13:17:19.264Z,11.15
2019-06-08T13:19:51.850Z,10.30
2019-06-08T13:22:29.021Z,10.53
2019-06-08T13:25:15.687Z,8.58
2019-06-08T13:27:37.970Z,8.13
2019-06-08T13:30:15.439Z,10.55
2019-06-08T13:32:48.234Z,8.28
2019-06-08T13:35:22.533Z,8.63
2019-06-08T13:37:57.618Z,6.85
2019-06-08T13:40:31.861Z,10.03
2019-06-08T13:43:07.962Z,6.97
2019-06-08T13:45:40.958Z,8.75
2019-06-08T13:48:16.025Z,6.03
2019-06-08T13:50:52.271Z,7.92
2019-06-08T13:53:29.356Z,5.83
2019-06-08T13:56:02.000Z,7.10
2019-06-08T13:58:38.211Z,4.42
2019-06-08T14:01:13.400Z,6.15
2019-06-08T14:03:49.993Z,5.00
2019-06-08T14:06:24.979Z,97.22
2019-06-08T14:08:59.324Z,53.95
2019-06-08T14:11:33.052Z,19.70
2019-06-08T14:14:08.518Z,13.72
2019-06-08T14:16:42.741Z,11.00
2019-06-08T14:19:19.360Z,11.65
2019-06-08T14:21:52.330Z,7.85
2019-06-08T14:24:32.149Z,7.62
2019-06-08T14:27:02.106Z,9.93
2019-06-08T14:29:36.061Z,6.90
2019-06-08T14:32:09.765Z,7.28
2019-06-08T14:34:49.752Z,42.60
2019-06-08T14:37:24.864Z,175.70
2019-06-08T14:39:58.619Z,85.45
2019-06-08T14:42:34.003Z,24.92
2019-06-08T14:45:10.807Z,23.22
2019-06-08T14:47:47.587Z,23.18
2019-06-08T14:50:22.929Z,17.82
2019-06-08T14:52:58.806Z,20.35
2019-06-08T14:55:34.371Z,13.65
2019-06-08T14:58:09.129Z,14.78
2019-06-08T15:00:45.260Z,12.35
2019-06-08T15:03:21.146Z,11.08
2019-06-08T15:05:55.168Z,10.70
2019-06-08T15:08:31.121Z,10.88
2019-06-08T15:11:07.921Z,12.95
2019-06-08T15:13:41.721Z,12.15
2019-06-08T15:16:18.028Z,10.55
2019-06-08T15:18:51.294Z,8.53
2019-06-08T15:21:26.506Z,6.75
2019-06-08T15:24:02.121Z,6.65
2019-06-08T15:26:42.337Z,7.28
2019-06-08T15:29:12.031Z,6.65
2019-06-08T15:31:48.216Z,9.15
2019-06-08T15:34:23.251Z,3.72
2019-06-08T15:36:57.573Z,4.90
2019-06-08T15:39:33.986Z,3.87
2019-06-08T15:42:08.258Z,5.22
2019-06-08T15:44:42.523Z,3.47
2019-06-08T15:47:18.041Z,5.83
2019-06-08T15:49:52.722Z,4.60
2019-06-08T15:52:29.539Z,4.75
2019-06-08T15:55:02.350Z,4.60
2019-06-08T15:57:40.359Z,3.62
2019-06-08T16:00:11.670Z,3.17
2019-06-08T16:02:45.626Z,3.58
2019-06-08T16:05:19.692Z,4.15
2019-06-08T16:07:53.850Z,4.42
2019-06-08T16:10:28.130Z,3.45
2019-06-08T16:13:04.214Z,3.35
2019-06-08T16:15:39.648Z,4.15
2019-06-08T16:18:14.078Z,3.30
2019-06-08T16:20:50.743Z,3.67
2019-06-08T16:23:25.351Z,3.92
2019-06-08T16:25:59.313Z,3.52
2019-06-08T16:28:34.167Z,4.12
2019-06-08T16:31:08.004Z,3.77
2019-06-08T16:33:44.189Z,3.55
2019-06-08T16:36:17.725Z,3.77
2019-06-08T16:38:53.008Z,3.20
2019-06-08T16:41:27.764Z,3.70
2019-06-08T16:44:06.098Z,3.80
2019-06-08T16:46:38.605Z,4.00
2019-06-08T16:49:12.706Z,3.30
2019-06-08T16:51:47.184Z,5.30
2019-06-08T16:54:20.977Z,5.78
2019-06-08T16:57:08.968Z,3.83
2019-06-08T16:59:30.539Z,3.70
2019-06-08T17:02:06.288Z,3.77
2019-06-08T17:04:41.650Z,3.77
2019-06-08T17:07:16.172Z,4.08
2019-06-08T17:09:50.909Z,3.30
2019-06-08T17:12:25.394Z,3.62
2019-06-08T17:14:59.606Z,3.30
2019-06-08T17:17:34.684Z,3.50
2019-06-08T17:20:09.834Z,4.47
2019-06-08T17:22:43.741Z,3.20
2019-06-08T17:25:17.552Z,3.58
2019-06-08T17:27:51.418Z,3.00
2019-06-08T17:30:25.282Z,3.45
2019-06-08T17:32:59.323Z,3.30
2019-06-08T17:35:35.595Z,3.33
2019-06-08T17:38:09.560Z,4.78
2019-06-08T17:40:44.366Z,3.60
2019-06-08T17:43:19.279Z,3.62
2019-06-08T17:45:53.018Z,4.47
2019-06-08T17:48:28.009Z,3.87
2019-06-08T17:51:02.024Z,3.58
2019-06-08T17:53:36.955Z,3.25
2019-06-08T17:56:10.903Z,3.60
2019-06-08T17:58:46.148Z,5.28
2019-06-08T18:01:21.423Z,4.12
2019-06-08T18:03:57.359Z,3.92
2019-06-08T18:06:30.972Z,5.62
2019-06-08T18:09:07.870Z,5.45
2019-06-08T18:11:43.481Z,3.90
2019-06-08T18:14:19.351Z,3.60
2019-06-08T18:16:53.302Z,3.85
2019-06-08T18:19:29.845Z,5.58
2019-06-08T18:22:05.703Z,4.28
2019-06-08T18:24:40.889Z,3.80
2019-06-08T18:27:17.827Z,4.17
2019-06-08T18:29:51.682Z,3.45
2019-06-08T18:32:27.213Z,3.12
2019-06-08T18:35:01.062Z,4.72
2019-06-08T18:37:34.893Z,8.40
2019-06-08T18:40:09.072Z,3.37
2019-06-08T18:42:44.619Z,3.87
2019-06-08T18:45:19.434Z,6.28
2019-06-08T18:47:53.608Z,4.75
2019-06-08T18:50:28.475Z,5.83
2019-06-08T18:53:03.780Z,3.33
2019-06-08T18:55:40.541Z,4.30
2019-06-08T18:58:21.270Z,5.37
2019-06-08T19:00:51.380Z,3.30
2019-06-08T19:03:25.100Z,3.90
2019-06-08T19:05:59.024Z,3.02
2019-06-08T19:08:32.952Z,3.00
2019-06-08T19:11:08.118Z,4.12
2019-06-08T19:13:42.571Z,4.10
2019-06-08T19:16:18.176Z,3.45
2019-06-08T19:18:52.923Z,3.52
2019-06-08T19:21:27.803Z,4.20
2019-06-08T19:24:03.879Z,4.87
2019-06-08T19:26:40.978Z,4.70
2019-06-08T19:29:13.222Z,5.25
2019-06-08T19:31:51.182Z,5.15
2019-06-08T19:34:24.004Z,3.00
2019-06-08T19:36:57.942Z,3.58
2019-06-08T19:39:32.175Z,4.53
2019-06-08T19:42:07.988Z,3.87
2019-06-08T19:44:50.556Z,3.22
2019-06-08T19:47:17.727Z,2.80
2019-06-08T19:49:54.742Z,3.45
2019-06-08T19:52:27.568Z,3.15
2019-06-08T19:55:01.491Z,3.27
2019-06-08T19:57:35.149Z,3.02
2019-06-08T20:00:09.022Z,3.17
2019-06-08T20:02:44.544Z,3.00
2019-06-08T20:05:18.853Z,2.62
2019-06-08T20:07:53.729Z,3.02
2019-06-08T20:10:28.120Z,2.95
2019-06-08T20:13:02.355Z,3.00
2019-06-08T20:15:43.458Z,3.15
2019-06-08T20:18:12.423Z,3.45
2019-06-08T20:20:49.059Z,4.03
2019-06-08T20:23:21.480Z,4.20
2019-06-08T20:25:57.360Z,3.62
2019-06-08T20:28:30.714Z,3.52
2019-06-08T20:31:04.599Z,4.15
2019-06-08T20:33:41.318Z,3.85
2019-06-08T20:36:17.397Z,4.33
2019-06-08T20:38:51.015Z,4.37
2019-06-08T20:41:24.666Z,3.83
2019-06-08T20:43:58.518Z,4.97
2019-06-08T20:46:32.258Z,4.42
2019-06-08T20:49:08.194Z,4.15
2019-06-08T20:51:42.484Z,4.47
2019-06-08T20:54:17.218Z,4.35
2019-06-08T20:56:52.097Z,4.35
2019-06-08T20:59:32.957Z,3.80
2019-06-08T21:02:02.484Z,3.58
2019-06-08T21:04:38.410Z,4.75
2019-06-08T21:07:12.385Z,4.35
2019-06-08T21:09:49.611Z,4.92
2019-06-08T21:12:22.095Z,4.78
2019-06-08T21:14:55.879Z,4.45
2019-06-08T21:17:29.969Z,3.92
2019-06-08T21:20:03.684Z,4.12
2019-06-08T21:22:37.630Z,4.35
2019-06-08T21:25:11.782Z,4.47
2019-06-08T21:27:48.058Z,4.00
2019-06-08T21:30:24.485Z,4.22
2019-06-08T21:33:00.726Z,4.10
2019-06-08T21:35:33.920Z,4.12
2019-06-08T21:38:22.557Z,4.17
2019-06-08T21:40:43.315Z,5.45
2019-06-08T21:43:18.413Z,4.80
2019-06-08T21:45:53.506Z,4.30
2019-06-08T21:48:27.910Z,4.85
2019-06-08T21:51:01.942Z,5.10
2019-06-08T21:53:37.996Z,4.58
2019-06-08T21:56:11.868Z,4.17
2019-06-08T21:58:47.323Z,4.10
2019-06-08T22:01:21.427Z,5.72
2019-06-08T22:03:56.556Z,4.58
2019-06-08T22:06:30.567Z,4.60
2019-06-08T22:09:07.068Z,4.30
2019-06-08T22:11:40.909Z,5.83
2019-06-08T22:14:14.884Z,7.33
2019-06-08T22:16:48.666Z,4.17
2019-06-08T22:19:22.798Z,4.15
2019-06-08T22:21:59.813Z,4.28
2019-06-08T22:24:32.233Z,4.03
2019-06-08T22:27:07.190Z,4.47
2019-06-08T22:29:41.202Z,3.70
2019-06-08T22:32:14.972Z,4.35
2019-06-08T22:34:48.841Z,4.08
2019-06-08T22:37:23.340Z,4.33
2019-06-08T22:39:58.222Z,4.58
2019-06-08T22:42:33.233Z,4.70
2019-06-08T22:45:08.276Z,4.58
2019-06-08T22:47:42.362Z,4.80
2019-06-08T22:50:18.412Z,4.10
2019-06-08T22:52:53.516Z,4.70
2019-06-08T22:55:27.736Z,5.00
2019-06-08T22:58:03.049Z,4.53
2019-06-08T23:00:51.817Z,4.45
2019-06-08T23:03:12.776Z,4.20
2019-06-08T23:05:47.687Z,4.15
2019-06-08T23:08:22.004Z,5.85
2019-06-08T23:10:58.599Z,5.03
2019-06-08T23:13:31.373Z,5.65
2019-06-08T23:16:06.191Z,4.40
2019-06-08T23:18:40.589Z,6.70
2019-06-08T23:21:14.309Z,5.62
2019-06-08T23:23:48.075Z,4.45
2019-06-08T23:26:21.891Z,4.12
2019-06-08T23:28:56.090Z,4.83
2019-06-08T23:31:31.457Z,4.55
2019-06-08T23:34:09.231Z,4.85
2019-06-08T23:36:53.261Z,4.62
2019-06-08T23:39:18.009Z,4.70
2019-06-08T23:41:51.540Z,4.90
2019-06-08T23:44:25.521Z,5.40
2019-06-08T23:47:01.154Z,5.53
2019-06-08T23:49:34.747Z,5.45
2019-06-08T23:52:11.273Z,4.87
2019-06-08T23:54:43.965Z,5.20
2019-06-08T23:57:18.067Z,4.53
2019-06-08T23:59:51.918Z,4.70
